Time;durP1;ratioP1;P1;durP2;ratioP2;P2;SDS_P1;SDS_P2;PMS_P1;PMS_P2;Temp;Humidity;BMP_temperature;BMP_pressure;BME280_temperature;BME280_humidity;BME280_pressure;Samples;Min_cycle;Max_cycle;Signal;HPM_P1;HPM_P2
2023/04/23 00:02:32;;;;;;;5.93;5.47;;;;;;;21.85;43.96;95009.72;6163500;28;108910;-63
2023/04/23 00:05:36;;;;;;;6.00;5.60;;;;;;;21.84;44.00;95003.59;6163300;28;108963;-63
2023/04/23 00:08:42;;;;;;;6.40;5.90;;;;;;;21.83;43.72;95006.56;6153680;28;110420;-64
2023/04/23 00:11:45;;;;;;;6.33;5.73;;;;;;;21.79;43.62;95004.47;6163479;28;108968;-63
2023/04/23 00:14:48;;;;;;;6.80;6.10;;;;;;;21.79;43.83;95003.69;6163235;28;109089;-63
2023/04/23 00:17:51;;;;;;;5.77;5.27;;;;;;;21.79;43.91;95007.13;6163335;28;108925;-63
2023/04/23 00:20:55;;;;;;;6.73;6.10;;;;;;;21.77;43.69;95006.66;6152656;28;109039;-63
2023/04/23 00:23:59;;;;;;;6.03;5.40;;;;;;;21.75;44.07;95008.84;6161797;28;108940;-63
2023/04/23 00:27:03;;;;;;;5.83;5.33;;;;;;;21.77;43.89;95005.88;6163049;28;109365;-63
2023/04/23 00:30:07;;;;;;;6.17;5.67;;;;;;;21.76;43.59;94999.75;6163344;28;108861;-63
2023/04/23 00:33:11;;;;;;;5.60;5.10;;;;;;;21.76;43.87;95005.09;6135770;28;108964;-63
2023/04/23 00:36:14;;;;;;;6.27;5.77;;;;;;;21.75;43.81;95002.72;6162540;28;108908;-63
2023/04/23 00:39:18;;;;;;;6.10;5.50;;;;;;;21.76;43.95;94998.97;6162836;28;109003;-63
2023/04/23 00:42:21;;;;;;;5.67;5.17;;;;;;;21.75;43.78;94997.41;6157013;28;109043;-63
2023/04/23 00:45:24;;;;;;;6.33;5.73;;;;;;;21.74;44.02;94995.81;6157012;28;108902;-63
2023/04/23 00:48:29;;;;;;;4.80;4.50;;;;;;;21.73;44.21;94995.03;6162220;28;108912;-63
2023/04/23 00:51:32;;;;;;;5.30;4.90;;;;;;;21.74;44.36;94993.94;6162257;28;109027;-63
2023/04/23 00:54:36;;;;;;;5.40;4.83;;;;;;;21.72;43.44;94993.47;6151564;28;110341;-63
2023/04/23 00:57:40;;;;;;;5.43;4.97;;;;;;;21.73;43.52;94994.25;6162026;28;108958;-63
2023/04/23 01:00:47;;;;;;;5.97;5.13;;;;;;;21.72;43.79;94992.69;6162622;28;108928;-70
2023/04/23 01:03:52;;;;;;;4.80;4.40;;;;;;;21.71;44.24;94996.44;6161856;28;108909;-63
2023/04/23 01:06:56;;;;;;;5.23;4.77;;;;;;;21.72;44.02;94998.81;6151174;28;108893;-62
2023/04/23 01:10:01;;;;;;;5.07;4.57;;;;;;;21.73;43.85;94994.25;6161859;28;108907;-61
2023/04/23 01:13:04;;;;;;;4.57;4.10;;;;;;;21.72;44.01;94996.13;6161944;28;108932;-61
2023/04/23 01:16:08;;;;;;;6.00;4.50;;;;;;;21.73;43.52;94996.91;6157704;28;110048;-62
2023/04/23 01:19:11;;;;;;;5.93;4.20;;;;;;;21.73;43.33;94994.25;6156187;28;109249;-61
2023/04/23 01:22:16;;;;;;;5.67;4.50;;;;;;;21.73;44.05;94996.91;6161719;28;108931;-62
2023/04/23 01:25:20;;;;;;;4.03;3.63;;;;;;;21.73;43.49;95004.91;6161041;28;108908;-63
2023/04/23 01:28:23;;;;;;;4.77;4.40;;;;;;;21.72;43.45;95000.69;6151566;28;108912;-63
2023/04/23 01:31:27;;;;;;;5.43;4.07;;;;;;;21.70;43.60;94995.66;6161287;28;109311;-63
2023/04/23 01:34:31;;;;;;;4.40;4.10;;;;;;;21.69;43.88;94999.41;6161707;28;109001;-64
2023/04/23 01:37:38;;;;;;;6.60;6.00;;;;;;;21.71;43.42;94999.09;6162256;28;109108;-63
2023/04/23 01:40:42;;;;;;;4.60;4.20;;;;;;;21.71;43.40;95009.75;6151670;28;109675;-63
2023/04/23 01:43:45;;;;;;;5.50;4.70;;;;;;;21.64;43.60;95007.50;6161888;28;108928;-62
2023/04/23 01:46:48;;;;;;;4.30;3.90;;;;;;;21.66;43.78;95010.66;6162008;28;108928;-66
2023/04/23 01:49:52;;;;;;;4.50;4.10;;;;;;;21.66;43.75;95010.66;6161780;28;108928;-62
2023/04/23 01:52:56;;;;;;;5.00;4.60;;;;;;;21.66;43.38;95013.31;6150874;28;109011;-63
2023/04/23 01:56:01;;;;;;;4.73;3.63;;;;;;;21.66;43.41;95015.19;6160229;28;108880;-62
2023/04/23 01:59:04;;;;;;;4.60;4.20;;;;;;;21.65;43.50;95016.28;6161583;28;108883;-63
2023/04/23 02:02:12;;;;;;;4.30;3.90;;;;;;;21.64;43.44;95022.69;6154090;28;108932;-62
2023/04/23 02:05:18;;;;;;;3.70;3.40;;;;;;;21.64;43.19;95026.16;6160641;28;108976;-63
2023/04/23 02:08:22;;;;;;;4.20;3.90;;;;;;;21.64;43.44;95014.72;6161061;28;108859;-63
2023/04/23 02:11:25;;;;;;;4.67;4.17;;;;;;;21.68;43.24;95013.03;6161403;28;108841;-63
2023/04/23 02:14:29;;;;;;;4.27;3.73;;;;;;;21.66;43.53;95018.63;6150035;28;109012;-63
2023/04/23 02:17:32;;;;;;;5.20;4.80;;;;;;;21.59;43.26;95010.28;6160962;28;108896;-63
2023/04/23 02:20:39;;;;;;;4.13;3.83;;;;;;;21.65;43.77;95018.94;6160517;28;108909;-63
2023/04/23 02:23:43;;;;;;;4.97;3.63;;;;;;;21.65;43.54;95021.59;6160482;28;109152;-63
2023/04/23 02:26:47;;;;;;;4.47;4.07;;;;;;;21.63;43.44;95018.47;6149864;28;108986;-63
2023/04/23 02:29:50;;;;;;;4.00;3.70;;;;;;;21.57;43.60;95009.81;6160706;28;108934;-61
2023/04/23 02:32:53;;;;;;;4.40;4.00;;;;;;;21.63;43.30;95021.13;6160532;28;108923;-63
2023/04/23 02:35:56;;;;;;;4.20;3.80;;;;;;;21.62;42.99;95024.88;6155035;28;108974;-62
2023/04/23 02:39:01;;;;;;;4.00;3.70;;;;;;;21.61;43.42;95024.09;6155525;28;108870;-62
2023/04/23 02:42:04;;;;;;;3.43;3.13;;;;;;;21.61;43.61;95016.09;6160126;28;109065;-65
2023/04/23 02:45:08;;;;;;;4.33;4.03;;;;;;;21.62;43.13;95016.88;6150190;28;108872;-61
2023/04/23 02:48:12;;;;;;;3.70;3.40;;;;;;;21.61;43.29;95017.97;6150819;28;108942;-62
2023/04/23 02:51:15;;;;;;;4.30;3.90;;;;;;;21.59;43.06;95018.28;6160642;28;108916;-62
2023/04/23 02:54:20;;;;;;;3.30;3.10;;;;;;;21.59;42.96;95015.63;6160242;28;108998;-62
2023/04/23 02:57:23;;;;;;;4.03;3.63;;;;;;;21.58;43.20;95018.59;6159918;28;108848;-61
2023/04/23 03:00:27;;;;;;;3.73;3.53;;;;;;;21.60;43.05;95019.84;6149351;28;108900;-63
2023/04/23 03:03:31;;;;;;;3.43;3.13;;;;;;;21.57;43.34;95020.47;6159807;28;108885;-62
2023/04/23 03:06:35;;;;;;;3.53;3.23;;;;;;;21.59;42.74;95028.16;6161553;28;108880;-62
2023/04/23 03:09:41;;;;;;;3.47;3.17;;;;;;;21.58;42.94;95029.25;6162611;28;108976;-62
2023/04/23 03:12:44;;;;;;;5.30;3.73;;;;;;;21.55;43.12;95029.84;6158002;28;109068;-61
2023/04/23 03:15:48;;;;;;;4.00;3.60;;;;;;;21.55;43.30;95029.84;6164043;28;108991;-63
2023/04/23 03:18:51;;;;;;;3.20;2.90;;;;;;;21.51;43.19;95041.13;6164757;28;109065;-62
2023/04/23 03:21:54;;;;;;;3.47;3.17;;;;;;;21.48;43.29;95033.69;6153479;28;108874;-62
2023/04/23 03:24:59;;;;;;;3.27;2.97;;;;;;;21.47;42.99;95037.47;6163694;28;108907;-62
2023/04/23 03:28:02;;;;;;;3.97;3.67;;;;;;;21.46;43.28;95033.22;6163411;28;108897;-62
2023/04/23 03:31:05;;;;;;;3.33;3.03;;;;;;;21.47;42.90;95037.47;6153601;28;109135;-62
2023/04/23 03:34:08;;;;;;;3.70;3.40;;;;;;;21.48;43.33;95038.25;6153573;28;109024;-62
2023/04/23 03:37:11;;;;;;;3.80;3.50;;;;;;;21.46;42.85;95038.53;6164348;28;108981;-62
2023/04/23 03:40:16;;;;;;;3.57;3.30;;;;;;;21.46;43.47;95053.72;6164256;28;108991;-62
2023/04/23 03:43:19;;;;;;;3.43;3.13;;;;;;;21.44;43.33;95046.03;6164035;28;108982;-63
2023/04/23 03:46:22;;;;;;;2.80;2.60;;;;;;;21.45;42.94;95044.97;6153316;28;109168;-61
2023/04/23 03:49:26;;;;;;;3.90;3.60;;;;;;;21.41;43.13;95041.31;6164099;28;108891;-61
2023/04/23 03:52:29;;;;;;;6.80;3.70;;;;;;;21.44;43.09;95050.59;6164144;28;109023;-62
2023/04/23 03:55:34;;;;;;;3.10;2.80;;;;;;;21.43;42.90;95057.78;6158965;28;109147;-63
2023/04/23 03:58:37;;;;;;;3.43;3.13;;;;;;;21.45;43.01;95052.16;6157414;28;108878;-63
2023/04/23 04:01:40;;;;;;;4.90;4.50;;;;;;;21.56;42.50;95064.16;6163895;28;109037;-68
2023/04/23 04:04:44;;;;;;;8.67;5.40;;;;;;;21.61;42.83;95066.69;6155209;28;109073;-70
2023/04/23 04:07:48;;;;;;;8.87;5.50;;;;;;;21.44;41.06;95066.56;6152257;28;108745;-68
2023/04/23 04:10:53;;;;;;;10.10;5.67;;;;;;;21.24;39.92;95078.44;6163666;28;108822;-68
2023/04/23 04:13:56;;;;;;;7.87;6.67;;;;;;;21.17;39.35;95072.72;6163156;28;109298;-68
2023/04/23 04:16:59;;;;;;;17.33;15.00;;;;;;;21.19;39.27;95081.22;6162794;28;110230;-68
2023/04/23 04:20:02;;;;;;;16.13;14.47;;;;;;;21.11;38.65;95072.06;6152668;28;109110;-63
2023/04/23 04:23:05;;;;;;;8.30;7.50;;;;;;;20.97;38.20;95071.25;6163097;28;108975;-63
2023/04/23 04:26:10;;;;;;;7.13;6.57;;;;;;;20.80;38.19;95069.19;6162979;28;109021;-62
2023/04/23 04:29:13;;;;;;;6.60;6.00;;;;;;;20.55;38.34;95078.47;6158688;28;108945;-61
2023/04/23 04:32:16;;;;;;;12.00;7.80;;;;;;;20.40;37.79;95080.59;6156249;28;108932;-61
2023/04/23 04:35:20;;;;;;;6.60;6.00;;;;;;;20.39;37.67;95082.47;6162848;28;108851;-62
2023/04/23 04:38:23;;;;;;;7.50;6.83;;;;;;;20.75;37.63;95090.56;6160582;28;108984;-62
2023/04/23 04:41:28;;;;;;;6.03;5.50;;;;;;;20.90;38.05;95086.84;6152035;28;108995;-62
2023/04/23 04:44:31;;;;;;;5.80;5.17;;;;;;;20.95;37.64;95075.28;6162254;28;109205;-62
2023/04/23 04:47:35;;;;;;;6.73;5.30;;;;;;;21.00;38.05;95089.28;6162561;28;108877;-62
2023/04/23 04:50:38;;;;;;;7.60;6.90;;;;;;;21.02;37.72;95087.13;6162209;28;108890;-62
2023/04/23 04:53:41;;;;;;;8.50;7.80;;;;;;;21.00;38.06;95089.28;6151829;28;109978;-62
2023/04/23 04:56:45;;;;;;;10.40;9.50;;;;;;;21.00;37.86;95091.16;6162230;28;108986;-62
2023/04/23 04:59:49;;;;;;;13.60;12.40;;;;;;;21.01;37.91;95093.53;6161158;28;109176;-67
2023/04/23 05:02:52;;;;;;;13.07;11.90;;;;;;;21.02;37.59;95096.97;6160817;28;108904;-64
2023/04/23 05:05:57;;;;;;;13.60;12.33;;;;;;;21.00;37.80;95093.81;6151734;28;109495;-62
2023/04/23 05:09:00;;;;;;;11.67;10.57;;;;;;;20.98;37.53;95091.44;6162181;28;108845;-63
2023/04/23 05:12:06;;;;;;;8.70;7.90;;;;;;;20.86;37.25;95091.97;6162018;28;109017;-63
2023/04/23 05:15:12;;;;;;;8.50;7.87;;;;;;;20.76;37.78;95097.47;6156586;28;109011;-64
2023/04/23 05:18:15;;;;;;;11.87;8.40;;;;;;;20.71;37.98;95091.47;6157668;28;109294;-68
2023/04/23 05:21:18;;;;;;;9.20;7.10;;;;;;;20.75;37.58;95097.75;6162607;28;109004;-68
2023/04/23 05:24:22;;;;;;;7.57;6.97;;;;;;;20.75;37.52;95097.75;6161064;28;108912;-62
2023/04/23 05:27:26;;;;;;;6.60;6.03;;;;;;;20.64;38.01;95097.16;6151486;28;108961;-62
2023/04/23 05:30:31;;;;;;;9.10;6.07;;;;;;;20.33;37.93;95091.59;6160161;28;108896;-67
2023/04/23 05:33:34;;;;;;;8.70;6.10;;;;;;;20.09;37.96;95097.03;6161338;28;108772;-67
2023/04/23 05:36:51;;;;;;;6.53;5.17;;;;;;;20.36;37.78;95104.34;6160695;28;109238;-67
2023/04/23 05:39:56;;;;;;;7.73;5.00;;;;;;;20.61;37.41;95106.53;6151041;28;109095;-67
2023/04/23 05:43:00;;;;;;;6.13;4.33;;;;;;;20.82;37.57;95106.13;6160668;28;109015;-66
2023/04/23 05:46:06;;;;;;;5.83;5.33;;;;;;;20.99;37.39;95098.34;6158136;28;108919;-65
2023/04/23 05:49:09;;;;;;;8.00;5.80;;;;;;;21.09;37.85;95103.50;6154315;28;109212;-69
2023/04/23 05:52:13;;;;;;;6.53;5.93;;;;;;;21.17;37.81;95104.66;6155567;28;108980;-66
2023/04/23 05:55:17;;;;;;;6.70;6.07;;;;;;;21.26;38.17;95108.19;6160146;28;108906;-65
2023/04/23 05:58:21;;;;;;;7.13;6.47;;;;;;;21.37;37.84;95103.47;6159711;28;109335;-65
2023/04/23 06:01:24;;;;;;;7.90;7.10;;;;;;;21.43;37.95;95097.72;6149266;28;109077;-65
2023/04/23 06:04:27;;;;;;;7.87;7.10;;;;;;;21.52;37.78;95100.47;6158959;28;108961;-68
2023/04/23 06:07:31;;;;;;;9.37;6.97;;;;;;;21.57;37.93;95088.91;6160446;28;109131;-67
2023/04/23 06:10:34;;;;;;;8.63;7.73;;;;;;;21.68;38.13;95092.94;6160045;28;108966;-68
2023/04/23 06:13:39;;;;;;;7.50;6.80;;;;;;;21.79;38.37;95088.91;6151227;28;108802;-69
2023/04/23 06:16:45;;;;;;;8.60;6.63;;;;;;;21.88;39.97;95089.03;6160475;28;108897;-67
2023/04/23 06:19:48;;;;;;;11.47;7.40;;;;;;;21.97;40.77;95097.84;6159921;28;109250;-68
2023/04/23 06:22:51;;;;;;;8.50;6.73;;;;;;;22.02;40.86;95097.75;6157980;28;108983;-67
2023/04/23 06:25:55;;;;;;;9.77;6.77;;;;;;;22.05;41.11;95097.94;6152881;28;108959;-67
2023/04/23 06:28:59;;;;;;;8.60;5.83;;;;;;;22.11;40.60;95102.03;6160094;28;109347;-62
2023/04/23 06:32:03;;;;;;;7.70;6.10;;;;;;;22.15;41.33;95090.75;6152766;28;109287;-64
2023/04/23 06:35:07;;;;;;;13.93;6.53;;;;;;;22.22;42.23;95086.59;6149792;28;108928;-63
2023/04/23 06:38:11;;;;;;;10.40;7.40;;;;;;;22.29;43.35;95092.25;6159257;28;109034;-63
2023/04/23 06:41:15;;;;;;;11.60;8.57;;;;;;;22.33;44.32;95089.75;6159966;28;108944;-64
2023/04/23 06:44:19;;;;;;;10.13;8.60;;;;;;;22.40;44.78;95090.13;6160007;28;108873;-64
2023/04/23 06:47:22;;;;;;;10.20;9.03;;;;;;;22.40;44.89;95084.78;6146537;28;108883;-66
2023/04/23 06:50:26;;;;;;;9.40;8.60;;;;;;;22.30;42.58;95083.16;6159025;28;109009;-65
2023/04/23 06:53:29;;;;;;;9.00;8.30;;;;;;;22.33;45.24;95087.09;6160362;28;109361;-63
2023/04/23 06:56:32;;;;;;;8.63;8.00;;;;;;;22.42;44.88;95086.06;6159642;28;109156;-63
2023/04/23 06:59:37;;;;;;;9.93;8.93;;;;;;;22.50;44.87;95084.50;6149113;28;109016;-64
2023/04/23 07:02:40;;;;;;;10.63;9.73;;;;;;;22.56;45.37;95080.63;6158743;28;108904;-67
2023/04/23 07:05:43;;;;;;;9.60;8.70;;;;;;;22.45;44.38;95079.31;6160415;28;108964;-64
2023/04/23 07:08:46;;;;;;;10.07;9.37;;;;;;;22.51;44.81;95083.41;6154309;28;108816;-64
2023/04/23 07:11:49;;;;;;;9.80;9.00;;;;;;;22.53;44.06;95085.81;6155150;28;108933;-64
2023/04/23 07:14:54;;;;;;;9.17;8.37;;;;;;;22.50;43.60;95081.84;6160560;28;108901;-64
2023/04/23 07:17:58;;;;;;;8.90;8.03;;;;;;;22.50;42.81;95089.06;6159275;28;108960;-64
2023/04/23 07:21:01;;;;;;;8.13;7.33;;;;;;;22.45;41.86;95079.31;6149894;28;108919;-63
2023/04/23 07:24:05;;;;;;;8.23;7.57;;;;;;;22.42;41.80;95072.72;6160014;28;109054;-64
2023/04/23 07:27:09;;;;;;;8.83;6.80;;;;;;;22.40;41.53;95074.13;6160028;28;108866;-64
2023/04/23 07:30:15;;;;;;;6.70;6.10;;;;;;;22.42;41.36;95063.94;6159487;28;108913;-64
2023/04/23 07:33:18;;;;;;;6.60;6.03;;;;;;;22.46;41.01;95064.91;6148371;28;108952;-65
2023/04/23 07:36:21;;;;;;;6.60;6.10;;;;;;;22.45;40.77;95068.66;6160531;28;109170;-64
2023/04/23 07:39:24;;;;;;;6.90;6.30;;;;;;;22.39;40.62;95070.69;6159693;28;108853;-64
2023/04/23 07:42:27;;;;;;;6.80;6.20;;;;;;;22.39;39.99;95061.91;6156063;28;108982;-65
2023/04/23 07:45:31;;;;;;;7.43;6.83;;;;;;;22.34;40.34;95075.34;6154050;28;109009;-64
2023/04/23 07:48:34;;;;;;;6.57;5.97;;;;;;;22.28;39.70;95068.56;6159287;28;109837;-66
2023/04/23 07:51:38;;;;;;;7.30;6.57;;;;;;;22.26;39.96;95073.44;6160209;28;108897;-64
2023/04/23 07:54:41;;;;;;;7.20;6.60;;;;;;;22.27;39.43;95072.34;6153573;28;109071;-65
2023/04/23 07:57:44;;;;;;;6.30;5.90;;;;;;;22.27;39.09;95075.78;6163066;28;109047;-64
2023/04/23 08:00:48;;;;;;;7.27;6.63;;;;;;;22.26;38.98;95062.75;6164017;28;108998;-63
2023/04/23 08:03:54;;;;;;;6.53;6.03;;;;;;;22.27;39.19;95069.66;6162532;28;108866;-64
2023/04/23 08:07:01;;;;;;;6.13;5.63;;;;;;;22.27;38.97;95067.00;6153793;28;109744;-63
2023/04/23 08:10:05;;;;;;;7.03;6.30;;;;;;;22.28;38.66;95068.56;6163197;28;109386;-64
2023/04/23 08:13:08;;;;;;;6.67;6.17;;;;;;;22.27;38.57;95067.78;6163901;28;108797;-64
2023/04/23 08:16:13;;;;;;;6.20;5.80;;;;;;;22.34;38.86;95064.66;6163321;28;108897;-65
2023/04/23 08:19:16;;;;;;;6.83;6.27;;;;;;;22.37;38.93;95062.19;6152432;28;109336;-65
2023/04/23 08:22:19;;;;;;;7.13;6.43;;;;;;;22.36;38.71;95065.97;6163508;28;108957;-64
2023/04/23 08:25:24;;;;;;;7.03;6.43;;;;;;;22.37;38.30;95064.09;6163215;28;109096;-65
2023/04/23 08:28:27;;;;;;;7.20;6.60;;;;;;;22.36;38.42;95055.31;6156808;28;108805;-67
2023/04/23 08:31:32;;;;;;;6.57;5.97;;;;;;;22.35;38.68;95059.06;6159979;28;109081;-64
2023/04/23 08:34:36;;;;;;;7.67;6.03;;;;;;;22.35;38.74;95061.72;6162235;28;108853;-64
2023/04/23 08:37:39;;;;;;;6.30;5.80;;;;;;;22.35;38.21;95048.41;6162664;28;108839;-64
2023/04/23 08:40:42;;;;;;;6.73;6.23;;;;;;;22.33;37.96;95047.09;6152406;28;108920;-64
2023/04/23 08:43:49;;;;;;;6.03;5.53;;;;;;;22.38;38.03;95047.00;6162667;28;108932;-64
2023/04/23 08:46:54;;;;;;;6.57;6.03;;;;;;;22.38;38.27;95047.00;6163044;28;108933;-64
2023/04/23 08:49:59;;;;;;;6.93;6.23;;;;;;;22.40;37.78;95039.47;6161185;28;108847;-64
2023/04/23 08:53:05;;;;;;;6.67;6.03;;;;;;;22.41;38.11;95043.72;6152169;28;108893;-64
2023/04/23 08:56:08;;;;;;;6.50;5.90;;;;;;;22.42;37.66;95037.28;6163070;28;108886;-65
2023/04/23 08:59:11;;;;;;;6.60;6.10;;;;;;;22.46;38.17;95038.22;6162452;28;109033;-64
2023/04/23 09:02:17;;;;;;;5.80;5.37;;;;;;;22.42;37.78;95031.94;6157572;28;108898;-64
2023/04/23 09:05:20;;;;;;;6.40;5.93;;;;;;;22.47;37.92;95037.13;6154575;28;108919;-64
2023/04/23 09:08:23;;;;;;;6.50;5.87;;;;;;;22.46;38.03;95032.91;6161691;28;108985;-64
2023/04/23 09:11:27;;;;;;;6.37;5.83;;;;;;;22.44;38.17;95034.31;6162490;28;108893;-64
2023/04/23 09:14:30;;;;;;;6.33;5.83;;;;;;;22.39;37.95;95038.69;6151031;28;109349;-65
2023/04/23 09:17:35;;;;;;;6.43;5.83;;;;;;;22.41;37.73;95035.72;6162314;28;108981;-66
2023/04/23 09:20:43;;;;;;;5.60;5.20;;;;;;;22.41;37.74;95025.03;6162301;28;108980;-66
2023/04/23 09:23:50;;;;;;;6.27;5.47;;;;;;;22.40;37.24;95023.47;6162280;28;108961;-64
2023/04/23 09:26:53;;;;;;;5.77;5.27;;;;;;;22.37;37.71;95032.88;6151098;28;108898;-65
2023/04/23 09:29:58;;;;;;;6.03;5.60;;;;;;;22.37;37.70;95018.75;6161273;28;109101;-65
2023/04/23 09:33:05;;;;;;;6.50;6.00;;;;;;;22.35;37.38;95016.41;6162400;28;109018;-65
2023/04/23 09:36:11;;;;;;;6.43;5.83;;;;;;;22.33;37.04;95018.56;6156874;28;108878;-66
2023/04/23 09:39:14;;;;;;;16.80;6.00;;;;;;;22.35;36.91;95019.06;6155575;28;108901;-64
2023/04/23 09:42:18;;;;;;;6.40;5.87;;;;;;;22.32;36.68;95001.00;6161963;28;108896;-65
2023/04/23 09:45:21;;;;;;;7.20;6.60;;;;;;;22.28;36.81;94999.25;6161866;28;108966;-65
2023/04/23 09:48:40;;;;;;;7.60;7.00;;;;;;;22.32;36.32;95003.66;6150632;28;109006;-64
2023/04/23 09:51:45;;;;;;;7.73;7.00;;;;;;;22.04;36.86;95002.31;6161959;28;108997;-64
2023/04/23 09:54:48;;;;;;;7.50;6.80;;;;;;;21.94;36.05;94987.34;6161456;28;108883;-65
2023/04/23 09:57:53;;;;;;;7.40;6.70;;;;;;;21.87;36.21;94986.22;6160239;28;110587;-65
2023/04/23 10:01:07;;;;;;;8.80;6.60;;;;;;;22.10;36.86;94980.53;6150246;28;109061;-65
2023/04/23 10:04:18;;;;;;;7.80;7.00;;;;;;;22.27;36.19;94982.47;6161006;28;108860;-64
2023/04/23 10:07:22;;;;;;;6.87;6.13;;;;;;;22.37;35.91;94976.09;6160707;28;109060;-64
2023/04/23 10:10:25;;;;;;;7.53;5.90;;;;;;;22.44;36.41;94971.09;6147982;28;108988;-64
2023/04/23 10:13:29;;;;;;;7.37;6.47;;;;;;;22.50;36.31;94966.38;6155045;28;109243;-64
2023/04/23 10:16:32;;;;;;;6.23;5.50;;;;;;;22.55;36.28;94966.28;6161479;28;108866;-65
2023/04/23 10:19:52;;;;;;;7.07;6.47;;;;;;;22.56;36.41;94965.19;6159570;28;110104;-64
2023/04/23 10:22:57;;;;;;;6.63;6.13;;;;;;;22.56;36.51;94962.50;6150808;28;111056;-66
2023/04/23 10:26:04;;;;;;;7.33;6.50;;;;;;;22.55;36.72;94960.94;6160753;28;108909;-64
2023/04/23 10:29:12;;;;;;;6.23;5.83;;;;;;;22.50;36.61;94951.19;6160679;28;108926;-64
2023/04/23 10:32:17;;;;;;;6.93;6.43;;;;;;;22.51;37.36;94949.28;6158515;28;109009;-67
2023/04/23 10:35:22;;;;;;;6.83;6.23;;;;;;;22.52;38.74;94940.22;6149293;28;109105;-64
2023/04/23 10:38:27;;;;;;;8.67;7.80;;;;;;;22.54;41.64;94944.16;6159388;28;108881;-65
2023/04/23 10:41:36;;;;;;;8.70;7.73;;;;;;;22.56;40.69;94933.94;6155093;28;108812;-64
2023/04/23 10:44:42;;;;;;;10.17;7.90;;;;;;;22.60;41.45;94934.16;6154582;28;109028;-64
2023/04/23 10:47:48;;;;;;;10.13;8.50;;;;;;;22.58;40.89;94939.78;6154945;28;108776;-65
2023/04/23 10:50:59;;;;;;;9.63;7.50;;;;;;;22.59;40.81;94936.03;6160110;28;108996;-64
2023/04/23 10:54:06;;;;;;;8.83;7.90;;;;;;;22.54;41.23;94935.38;6156818;28;108943;-65
2023/04/23 10:57:10;;;;;;;8.30;7.40;;;;;;;22.55;41.27;94931.59;6149471;28;108908;-65
2023/04/23 11:00:15;;;;;;;7.70;7.03;;;;;;;22.55;41.00;94929.72;6160764;28;109967;-64
2023/04/23 11:03:30;;;;;;;8.47;7.67;;;;;;;22.51;40.63;94918.09;6158366;28;109728;-64
2023/04/23 11:07:04;;;;;;;8.17;7.13;;;;;;;22.48;39.78;94918.72;6160254;28;109007;-64
2023/04/23 11:10:12;;;;;;;8.17;7.47;;;;;;;22.47;39.08;94913.69;6152123;28;109044;-64
2023/04/23 11:13:24;;;;;;;8.00;7.20;;;;;;;22.44;38.95;94914.31;6159844;28;109034;-64
2023/04/23 11:16:28;;;;;;;8.43;6.57;;;;;;;22.38;39.34;94911.81;6159222;28;109110;-64
2023/04/23 11:19:31;;;;;;;7.30;6.60;;;;;;;22.37;38.85;94904.13;6144060;28;108881;-63
2023/04/23 11:22:37;;;;;;;7.23;6.70;;;;;;;22.36;38.83;94900.66;6140487;28;109108;-63
2023/04/23 11:25:43;;;;;;;7.83;7.07;;;;;;;22.36;37.98;94883.88;6154258;28;111215;-65
2023/04/23 11:28:49;;;;;;;6.77;6.17;;;;;;;22.39;37.49;94889.38;6162329;28;109060;-65
2023/04/23 11:31:52;;;;;;;9.40;6.40;;;;;;;22.41;37.59;94887.19;6154145;28;109632;-64
2023/04/23 11:35:06;;;;;;;6.83;6.00;;;;;;;22.37;37.55;94875.56;6156330;28;109268;-62
2023/04/23 11:38:10;;;;;;;6.47;5.87;;;;;;;22.43;37.15;94870.88;6161993;28;108940;-62
2023/04/23 11:41:14;;;;;;;6.20;5.60;;;;;;;22.42;36.49;94878.09;6158051;28;108940;-61
2023/04/23 11:44:17;;;;;;;6.60;6.00;;;;;;;22.42;36.34;94879.97;6157622;28;108903;-61
2023/04/23 11:47:21;;;;;;;6.33;5.73;;;;;;;22.40;36.46;94876.81;6164241;28;108989;-61
2023/04/23 11:50:26;;;;;;;5.90;5.40;;;;;;;22.37;36.04;94872.13;6163451;28;109010;-61
2023/04/23 11:53:30;;;;;;;5.90;5.43;;;;;;;22.43;35.94;94868.19;6154408;28;108940;-61
2023/04/23 11:56:34;;;;;;;6.30;5.60;;;;;;;22.42;35.48;94861.31;6155560;28;109076;-62
2023/04/23 11:59:37;;;;;;;5.83;5.30;;;;;;;22.45;35.05;94858.00;6162682;28;109138;-62
2023/04/23 12:02:50;;;;;;;7.30;5.20;;;;;;;22.46;35.04;94851.56;6163488;28;108890;-62
2023/04/23 12:05:54;;;;;;;5.97;5.47;;;;;;;22.47;35.14;94847.81;6153125;28;109073;-61
2023/04/23 12:08:59;;;;;;;6.17;5.60;;;;;;;22.49;35.44;94848.28;6163585;28;108888;-61
2023/04/23 12:12:02;;;;;;;5.93;5.53;;;;;;;22.50;35.67;94844.50;6162956;28;108849;-61
2023/04/23 12:15:07;;;;;;;5.50;5.03;;;;;;;22.51;35.87;94842.63;6162045;28;108901;-61
2023/04/23 12:18:10;;;;;;;5.37;4.97;;;;;;;22.53;35.37;94846.56;6155554;28;108976;-61
2023/04/23 12:21:16;;;;;;;5.20;4.80;;;;;;;22.50;35.87;94847.19;6162736;28;108998;-62
2023/04/23 12:24:21;;;;;;;5.83;5.03;;;;;;;22.52;36.20;94842.34;6162138;28;108874;-62
2023/04/23 12:27:25;;;;;;;5.33;4.93;;;;;;;22.52;36.54;94845.00;6153268;28;109738;-62
2023/04/23 12:30:29;;;;;;;5.20;4.73;;;;;;;22.53;36.64;94840.47;6161880;28;109003;-62
2023/04/23 12:33:32;;;;;;;5.97;5.40;;;;;;;22.53;36.81;94827.13;6162274;28;108900;-62
2023/04/23 12:36:36;;;;;;;5.27;4.77;;;;;;;22.49;37.27;94826.16;6162589;28;108869;-62
2023/04/23 12:39:41;;;;;;;5.07;4.63;;;;;;;22.48;37.13;94824.59;6151317;28;108966;-65
2023/04/23 12:42:44;;;;;;;6.33;5.83;;;;;;;22.47;37.07;94820.38;6161845;28;109017;-62
2023/04/23 12:45:48;;;;;;;5.37;4.87;;;;;;;22.49;37.79;94823.50;6162299;28;108912;-62
2023/04/23 12:48:51;;;;;;;6.00;4.90;;;;;;;22.46;37.42;94819.56;6163240;28;108807;-62
2023/04/23 12:51:59;;;;;;;4.90;4.50;;;;;;;22.47;38.20;94817.69;6152150;28;109679;-63
2023/04/23 12:55:05;;;;;;;4.70;4.20;;;;;;;22.46;38.12;94810.78;6162145;28;108903;-62
2023/04/23 12:58:08;;;;;;;4.27;3.97;;;;;;;22.45;38.11;94812.69;6148860;28;108911;-63
2023/04/23 13:01:13;;;;;;;4.90;4.47;;;;;;;22.46;38.61;94808.13;6156237;28;108900;-62
2023/04/23 13:04:16;;;;;;;4.40;4.10;;;;;;;22.46;38.29;94811.56;6160132;28;110381;-62
2023/04/23 13:07:20;;;;;;;4.80;4.40;;;;;;;22.45;38.09;94820.69;6162148;28;108949;-62
2023/04/23 13:10:24;;;;;;;6.77;4.40;;;;;;;22.49;38.76;94812.81;6162249;28;108870;-62
2023/04/23 13:13:27;;;;;;;4.87;4.50;;;;;;;22.49;39.15;94818.94;6151002;28;108903;-62
2023/04/23 13:16:31;;;;;;;4.67;4.27;;;;;;;22.47;39.22;94815.81;6162150;28;108996;-62
2023/04/23 13:19:34;;;;;;;4.77;4.47;;;;;;;22.49;38.89;94812.81;6161430;28;108946;-62
2023/04/23 13:22:37;;;;;;;4.20;3.90;;;;;;;22.50;39.65;94814.41;6161663;28;108825;-62
2023/04/23 13:25:41;;;;;;;4.80;4.30;;;;;;;22.54;39.23;94810.03;6151503;28;109010;-64
2023/04/23 13:28:44;;;;;;;5.13;4.73;;;;;;;22.49;39.52;94812.81;6161510;28;109271;-64
2023/04/23 13:31:48;;;;;;;5.57;5.17;;;;;;;22.46;39.64;94808.13;6161686;28;108961;-64
2023/04/23 13:34:51;;;;;;;5.30;4.80;;;;;;;22.46;39.72;94810.78;6156547;28;108940;-65
2023/04/23 13:37:54;;;;;;;7.27;5.97;;;;;;;22.46;39.54;94800.13;6155255;28;109016;-66
2023/04/23 13:40:58;;;;;;;5.20;4.60;;;;;;;22.48;39.71;94801.38;6155575;28;109907;-67
2023/04/23 13:44:02;;;;;;;6.07;5.57;;;;;;;22.54;39.94;94800.16;6150066;28;109610;-67
2023/04/23 13:47:05;;;;;;;6.70;6.20;;;;;;;22.60;39.55;94795.47;6149568;28;109004;-66
2023/04/23 13:50:09;;;;;;;5.60;5.20;;;;;;;22.63;39.52;94792.94;6160201;28;108925;-66
2023/04/23 13:53:12;;;;;;;5.90;5.40;;;;;;;22.64;39.66;94789.16;6160968;28;108914;-67
2023/04/23 13:56:17;;;;;;;6.00;5.40;;;;;;;22.63;40.07;94781.47;6160820;28;108976;-68
2023/04/23 13:59:20;;;;;;;6.40;5.83;;;;;;;22.61;39.70;94781.03;6150900;28;109156;-66
2023/04/23 14:02:23;;;;;;;6.00;5.50;;;;;;;22.58;39.75;94790.44;6159621;28;108879;-68
2023/04/23 14:05:27;;;;;;;5.67;5.17;;;;;;;22.60;39.69;94792.78;6160933;28;109045;-68
2023/04/23 14:08:30;;;;;;;7.03;5.23;;;;;;;22.55;39.94;94796.38;6160693;28;108909;-68
2023/04/23 14:11:34;;;;;;;7.03;5.87;;;;;;;22.56;39.92;94802.50;6149981;28;110321;-68
2023/04/23 14:14:38;;;;;;;6.70;6.10;;;;;;;22.55;39.84;94791.03;6160001;28;109006;-69
2023/04/23 14:17:43;;;;;;;5.90;5.30;;;;;;;22.54;40.01;94789.47;6160565;28;108956;-68